Terminal Aerodrome Forecast
Issued by NWS Grand Junction, CO

Home | Current Version | Previous Version | Text Only | Print | Product List | Glossary On
Versions: 1 2 3 4 5 6 7 8 9 10 11 12 13 14 15 16 17 18 19 20 21 22 23 24 25 26 27 28 29 30 31 32 33 34
000
FTUS45 KGJT 011447 AAB
TAFGJT
TAF AMD
KGJT 011447Z 0115/0212 11008KT P6SM SCT150 WS020/26030KT
     FM011700 13008KT P6SM SCT250 WS020/26025KT
     FM011800 27014G24KT P6SM FEW120 BKN250
     FM020200 34010KT P6SM SCT250
     FM020700 33005KT P6SM BKN200=

USA.gov is the U.S. government's official web portal to all federal, state and local government web resources and services.